Time;durP1;ratioP1;P1;durP2;ratioP2;P2;SDS_P1;SDS_P2;PMS_P1;PMS_P2;Temp;Humidity;BMP_temperature;BMP_pressure;BME280_temperature;BME280_humidity;BME280_pressure;Samples;Min_cycle;Max_cycle;Signal;HPM_P1;HPM_P2
2021/09/05 00:01:44;;;;;;;14.95;8.63;;;14.50;82.90;;;;;;4803997;29;20505;-75
2021/09/05 00:04:12;;;;;;;19.13;9.32;;;14.50;82.90;;;;;;4803480;29;20410;-74
2021/09/05 00:06:40;;;;;;;15.35;8.10;;;14.40;83.00;;;;;;4804702;29;20532;-74
2021/09/05 00:09:08;;;;;;;14.65;9.00;;;14.30;83.20;;;;;;4804747;29;20047;-74
2021/09/05 00:11:35;;;;;;;13.75;9.20;;;14.30;83.50;;;;;;4804781;29;20059;-74
2021/09/05 00:14:03;;;;;;;17.23;8.88;;;14.20;83.60;;;;;;4803730;29;20046;-74
2021/09/05 00:16:31;;;;;;;25.50;8.68;;;14.10;83.90;;;;;;4819058;29;20489;-74
2021/09/05 00:18:59;;;;;;;18.45;8.82;;;14.00;84.10;;;;;;4804724;29;20047;-75
2021/09/05 00:21:26;;;;;;;16.15;8.88;;;14.00;84.30;;;;;;4788818;29;20042;-75
2021/09/05 00:23:54;;;;;;;16.67;8.63;;;14.00;84.40;;;;;;4802937;29;20059;-75
2021/09/05 00:26:22;;;;;;;17.42;8.68;;;14.00;84.50;;;;;;4804896;29;20048;-75
2021/09/05 00:28:49;;;;;;;19.33;9.02;;;14.00;84.50;;;;;;4805001;29;20071;-75
2021/09/05 00:31:17;;;;;;;12.77;8.90;;;14.00;84.50;;;;;;4803292;29;20057;-75
2021/09/05 00:33:44;;;;;;;17.30;8.75;;;14.00;84.60;;;;;;4804129;29;20047;-75
2021/09/05 00:36:13;;;;;;;24.17;8.98;;;13.90;84.70;;;;;;4804170;29;20043;-75
2021/09/05 00:38:43;;;;;;;13.57;8.63;;;13.90;84.80;;;;;;4803082;29;20057;-75
2021/09/05 00:41:10;;;;;;;14.05;8.70;;;14.00;84.80;;;;;;4788510;29;20051;-75
2021/09/05 00:43:56;;;;;;;14.43;8.40;;;14.00;84.80;;;;;;4803483;29;20047;-75
2021/09/05 00:46:23;;;;;;;11.38;7.65;;;14.00;84.90;;;;;;4803809;29;20126;-75
2021/09/05 00:48:51;;;;;;;14.80;8.20;;;14.10;84.80;;;;;;4788078;29;20051;-75
2021/09/05 00:51:22;;;;;;;19.58;8.55;;;14.10;84.80;;;;;;4803516;29;20051;-75
2021/09/05 00:53:52;;;;;;;15.32;8.27;;;14.20;84.70;;;;;;4826684;29;20053;-76
2021/09/05 00:56:19;;;;;;;17.00;8.02;;;14.30;84.60;;;;;;4805788;29;20069;-75
2021/09/05 00:58:47;;;;;;;16.02;8.93;;;14.30;84.50;;;;;;4804065;29;20469;-76
2021/09/05 01:01:16;;;;;;;18.40;8.95;;;14.40;84.40;;;;;;4832912;29;20055;-74
2021/09/05 01:03:45;;;;;;;17.48;8.77;;;14.50;84.30;;;;;;4817126;29;20066;-74
2021/09/05 01:06:13;;;;;;;22.98;9.35;;;14.50;84.20;;;;;;4803235;29;20085;-74
2021/09/05 01:08:41;;;;;;;15.05;9.05;;;14.60;84.10;;;;;;4804416;29;20055;-74
2021/09/05 01:11:10;;;;;;;18.33;8.32;;;14.60;84.00;;;;;;4804525;29;20054;-74
2021/09/05 01:13:40;;;;;;;13.88;8.57;;;14.50;84.00;;;;;;4803387;29;20051;-74
2021/09/05 01:16:26;;;;;;;14.82;8.75;;;14.50;84.00;;;;;;4803199;29;20058;-75
2021/09/05 01:19:05;;;;;;;17.70;8.80;;;14.50;84.10;;;;;;4803346;29;20054;-74
2021/09/05 01:21:59;;;;;;;19.88;9.32;;;14.50;84.00;;;;;;4803170;29;20529;-75
2021/09/05 01:25:02;;;;;;;17.95;9.55;;;14.50;84.00;;;;;;4819436;29;20062;-75
2021/09/05 01:27:56;;;;;;;15.63;9.30;;;14.50;84.00;;;;;;4804815;29;20174;-75
2021/09/05 01:30:42;;;;;;;15.00;9.38;;;14.50;84.00;;;;;;4819981;29;20083;-74
2021/09/05 01:33:28;;;;;;;20.08;9.18;;;14.60;84.00;;;;;;4820163;29;20081;-75
2021/09/05 01:36:18;;;;;;;20.48;9.48;;;14.60;84.00;;;;;;4813608;29;20096;-75
2021/09/05 01:38:46;;;;;;;16.85;9.20;;;14.60;84.00;;;;;;4804783;29;20063;-75
2021/09/05 01:41:32;;;;;;;17.40;9.30;;;14.60;83.90;;;;;;4804559;29;20417;-75
2021/09/05 01:44:38;;;;;;;17.60;9.20;;;14.70;83.80;;;;;;4787407;30;20055;-75
2021/09/05 01:47:24;;;;;;;19.15;9.00;;;14.70;83.70;;;;;;4787155;30;20063;-75
2021/09/05 01:50:10;;;;;;;15.82;9.18;;;14.70;83.60;;;;;;4792286;29;20074;-74
2021/09/05 01:53:02;;;;;;;19.33;8.90;;;14.70;83.50;;;;;;4785685;30;20070;-74
2021/09/05 01:55:55;;;;;;;15.88;8.73;;;14.70;83.40;;;;;;4773499;30;20067;-74
2021/09/05 01:58:57;;;;;;;15.55;9.32;;;14.70;83.40;;;;;;4787342;30;20059;-74
2021/09/05 02:01:43;;;;;;;20.08;8.43;;;14.70;83.40;;;;;;4787213;30;20063;-75
2021/09/05 02:04:34;;;;;;;17.13;8.57;;;14.60;83.50;;;;;;4779939;30;20075;-75
2021/09/05 02:07:30;;;;;;;17.63;9.27;;;14.60;83.50;;;;;;4769102;30;20059;-75
2021/09/05 02:10:16;;;;;;;17.98;8.90;;;14.50;83.60;;;;;;4758860;30;20499;-75
2021/09/05 02:13:00;;;;;;;17.08;9.05;;;14.50;83.60;;;;;;4752304;30;20195;-75
2021/09/05 02:15:46;;;;;;;17.85;9.15;;;14.50;83.70;;;;;;4766947;30;20058;-75
2021/09/05 02:18:30;;;;;;;17.80;8.80;;;14.50;83.60;;;;;;4768410;30;20079;-75
2021/09/05 02:21:18;;;;;;;18.55;9.82;;;14.50;83.60;;;;;;4756730;30;20055;-75
2021/09/05 02:23:59;;;;;;;18.92;8.75;;;14.50;83.50;;;;;;4751189;30;20165;-75
2021/09/05 02:26:47;;;;;;;14.93;8.80;;;14.60;83.40;;;;;;4752009;30;20571;-75
2021/09/05 02:29:34;;;;;;;11.55;8.07;;;14.60;83.20;;;;;;4750972;30;20055;-75
2021/09/05 02:32:15;;;;;;;18.38;8.80;;;14.60;83.10;;;;;;4750987;30;20228;-75
2021/09/05 02:35:02;;;;;;;19.70;9.27;;;14.60;83.00;;;;;;4758823;30;20056;-75
2021/09/05 02:37:53;;;;;;;23.30;9.23;;;14.60;82.90;;;;;;4751356;30;20193;-75
2021/09/05 02:40:53;;;;;;;16.15;8.40;;;14.70;82.70;;;;;;4750841;30;20549;-75
2021/09/05 02:43:39;;;;;;;17.10;9.20;;;14.70;82.60;;;;;;4750729;30;20060;-75
2021/09/05 02:46:29;;;;;;;23.58;9.05;;;14.70;82.60;;;;;;4766528;30;20051;-75
2021/09/05 02:49:27;;;;;;;17.77;8.45;;;14.70;82.40;;;;;;4753370;30;20063;-74
2021/09/05 02:52:19;;;;;;;15.05;8.45;;;14.70;82.30;;;;;;4768334;30;20059;-74
2021/09/05 02:55:07;;;;;;;15.52;8.63;;;14.70;82.20;;;;;;4750538;30;20052;-74
2021/09/05 02:58:05;;;;;;;19.70;9.38;;;14.80;82.10;;;;;;4761755;29;20178;-74
2021/09/05 03:00:52;;;;;;;19.05;8.85;;;14.80;82.10;;;;;;4754914;30;20161;-74
2021/09/05 03:03:55;;;;;;;19.85;9.10;;;14.80;82.00;;;;;;4767815;30;20072;-74
2021/09/05 03:06:41;;;;;;;14.88;8.00;;;14.80;82.00;;;;;;4768775;30;20052;-74
2021/09/05 03:09:29;;;;;;;17.73;8.07;;;14.70;81.90;;;;;;4767707;30;20072;-74
2021/09/05 03:12:15;;;;;;;16.05;8.00;;;14.70;81.80;;;;;;4767920;30;20055;-75
2021/09/05 03:15:06;;;;;;;18.05;8.48;;;14.70;81.80;;;;;;4767586;30;20055;-75
2021/09/05 03:17:55;;;;;;;16.67;8.25;;;14.70;81.80;;;;;;4785668;30;20063;-74
2021/09/05 03:20:51;;;;;;;13.93;8.45;;;14.70;81.80;;;;;;4801741;29;20054;-74
2021/09/05 03:23:54;;;;;;;16.52;8.55;;;14.70;81.70;;;;;;4804669;29;20054;-74
2021/09/05 03:26:42;;;;;;;18.90;8.95;;;14.70;81.70;;;;;;4804603;29;20046;-74
2021/09/05 03:29:29;;;;;;;21.38;9.10;;;14.70;81.70;;;;;;4814769;29;20055;-74
2021/09/05 03:32:15;;;;;;;16.80;8.30;;;14.70;81.70;;;;;;4800261;29;20062;-75
2021/09/05 03:35:09;;;;;;;15.18;8.40;;;14.60;81.60;;;;;;4781307;29;20061;-75
2021/09/05 03:37:57;;;;;;;13.27;8.70;;;14.70;81.60;;;;;;4823181;29;20054;-74
2021/09/05 03:40:45;;;;;;;13.10;7.90;;;14.60;81.60;;;;;;4823025;29;20412;-74
2021/09/05 03:43:42;;;;;;;15.65;8.23;;;14.60;81.70;;;;;;4774978;30;20060;-75
2021/09/05 03:46:28;;;;;;;17.20;8.52;;;14.60;81.70;;;;;;4767399;30;20044;-74
2021/09/05 03:49:15;;;;;;;14.43;8.07;;;14.60;81.70;;;;;;4767247;30;20396;-75
2021/09/05 03:51:46;;;;;;;12.35;8.35;;;14.60;81.70;;;;;;4771706;30;20062;-74
2021/09/05 03:54:17;;;;;;;13.80;8.57;;;14.60;81.80;;;;;;4766684;30;20064;-75
2021/09/05 03:56:47;;;;;;;16.63;7.53;;;14.60;81.80;;;;;;4752165;30;20056;-75
2021/09/05 03:59:15;;;;;;;16.95;7.72;;;14.60;81.80;;;;;;4760143;30;20516;-75
2021/09/05 04:01:43;;;;;;;15.35;8.05;;;14.50;81.90;;;;;;4783654;30;20063;-75
2021/09/05 04:04:18;;;;;;;14.38;7.18;;;14.50;81.90;;;;;;4784679;30;20082;-75
2021/09/05 04:06:50;;;;;;;17.42;8.23;;;14.40;81.90;;;;;;4768457;30;20128;-75
2021/09/05 04:10:08;;;;;;;15.23;7.90;;;14.40;82.00;;;;;;4766539;30;20048;-75
2021/09/05 04:12:05;;;;;;;11.43;7.28;;;14.30;82.10;;;;;;4766400;30;20055;-75
2021/09/05 04:14:33;;;;;;;16.02;7.93;;;14.30;82.30;;;;;;4769924;30;20047;-76
2021/09/05 04:17:01;;;;;;;12.68;7.75;;;14.20;82.60;;;;;;4779145;30;20566;-75
2021/09/05 04:19:28;;;;;;;14.00;7.72;;;14.10;82.80;;;;;;4770209;30;20418;-75
2021/09/05 04:21:56;;;;;;;16.67;8.38;;;14.00;83.00;;;;;;4813004;29;20061;-75
2021/09/05 04:24:23;;;;;;;20.00;8.75;;;13.90;83.30;;;;;;4803670;29;20063;-75
2021/09/05 04:26:51;;;;;;;12.68;7.85;;;13.90;83.40;;;;;;4804493;29;20058;-75
2021/09/05 04:29:18;;;;;;;15.93;8.00;;;13.90;83.50;;;;;;4804610;29;20050;-75
2021/09/05 04:31:47;;;;;;;16.17;8.30;;;13.90;83.60;;;;;;4804344;29;20047;-75
2021/09/05 04:34:14;;;;;;;14.05;8.13;;;13.90;83.70;;;;;;4804779;29;20069;-75
2021/09/05 04:36:42;;;;;;;17.30;8.80;;;13.90;83.70;;;;;;4818856;29;20054;-73
2021/09/05 04:39:09;;;;;;;13.63;8.52;;;13.90;83.90;;;;;;4805871;29;20053;-75
2021/09/05 04:41:37;;;;;;;17.38;8.50;;;13.90;83.90;;;;;;4821432;29;20058;-75
2021/09/05 04:44:05;;;;;;;15.88;8.43;;;13.90;84.00;;;;;;4818641;29;20046;-73
2021/09/05 04:46:32;;;;;;;18.77;8.70;;;13.80;84.10;;;;;;4822848;29;20552;-75
2021/09/05 04:49:00;;;;;;;15.40;8.75;;;13.80;84.20;;;;;;4821969;29;20075;-75
2021/09/05 04:51:27;;;;;;;11.85;7.90;;;13.70;84.40;;;;;;4811422;29;20054;-75
2021/09/05 04:53:55;;;;;;;13.55;8.70;;;13.60;84.60;;;;;;4811776;29;20074;-75
2021/09/05 04:56:22;;;;;;;19.80;8.68;;;13.50;84.70;;;;;;4808186;29;20393;-75
2021/09/05 04:58:50;;;;;;;15.32;8.95;;;13.50;85.10;;;;;;4822344;29;20051;-76
2021/09/05 05:01:18;;;;;;;20.02;9.32;;;13.40;85.30;;;;;;4821443;29;20050;-76
2021/09/05 05:03:46;;;;;;;18.15;9.88;;;13.30;85.50;;;;;;4836250;29;20059;-75
2021/09/05 05:06:33;;;;;;;17.73;9.40;;;13.20;85.70;;;;;;4799270;29;20505;-75
2021/09/05 05:09:01;;;;;;;20.50;9.93;;;13.20;85.90;;;;;;4803719;29;20050;-75
2021/09/05 05:11:29;;;;;;;19.08;9.25;;;13.10;86.10;;;;;;4808057;29;20047;-75
2021/09/05 05:13:56;;;;;;;22.13;9.52;;;13.00;86.20;;;;;;4806208;29;20059;-75
2021/09/05 05:16:24;;;;;;;14.57;9.60;;;13.00;86.40;;;;;;4809521;29;20058;-76
2021/09/05 05:18:52;;;;;;;16.33;9.38;;;12.90;86.70;;;;;;4825435;29;20050;-75
2021/09/05 05:21:20;;;;;;;21.05;10.75;;;12.80;86.80;;;;;;4822299;29;20504;-75
2021/09/05 05:23:47;;;;;;;25.02;10.10;;;12.80;87.00;;;;;;4823897;29;20420;-75
2021/09/05 05:26:15;;;;;;;20.55;9.43;;;12.80;87.20;;;;;;4825181;29;20058;-73
2021/09/05 05:28:42;;;;;;;20.40;10.25;;;12.80;87.30;;;;;;4825496;29;20489;-75
2021/09/05 05:31:10;;;;;;;17.55;9.32;;;12.80;87.40;;;;;;4839054;29;20055;-75
2021/09/05 05:33:38;;;;;;;21.20;10.60;;;12.80;87.50;;;;;;4823773;29;20500;-75
2021/09/05 05:36:05;;;;;;;19.35;10.07;;;12.80;87.50;;;;;;4817390;29;20074;-75
2021/09/05 05:38:33;;;;;;;18.90;9.55;;;12.80;87.70;;;;;;4807516;29;20062;-75
2021/09/05 05:41:00;;;;;;;21.02;10.82;;;12.70;87.80;;;;;;4807168;29;20050;-73
2021/09/05 05:43:28;;;;;;;21.90;10.43;;;12.70;87.90;;;;;;4821547;29;20061;-74
2021/09/05 05:45:56;;;;;;;19.83;10.18;;;12.70;88.10;;;;;;4825537;29;20070;-73
2021/09/05 05:48:23;;;;;;;21.50;10.93;;;12.80;88.10;;;;;;4823719;29;20058;-73
2021/09/05 05:50:53;;;;;;;18.70;10.32;;;12.70;88.10;;;;;;4821813;29;20050;-73
2021/09/05 05:53:21;;;;;;;19.35;10.07;;;12.70;88.20;;;;;;4806151;29;20520;-73
2021/09/05 05:55:48;;;;;;;20.67;10.27;;;12.70;88.20;;;;;;4820656;29;20051;-73
2021/09/05 05:58:16;;;;;;;18.55;10.60;;;12.70;88.30;;;;;;4824663;29;20050;-73
2021/09/05 06:01:03;;;;;;;23.55;10.68;;;12.60;88.40;;;;;;4823658;29;20057;-73
2021/09/05 06:03:31;;;;;;;24.63;10.18;;;12.70;88.50;;;;;;4838715;29;20061;-75
2021/09/05 06:06:00;;;;;;;23.42;10.38;;;12.70;88.50;;;;;;4809854;29;20043;-73
2021/09/05 06:08:28;;;;;;;21.20;9.82;;;12.70;88.50;;;;;;4808069;29;20462;-73
2021/09/05 06:10:55;;;;;;;20.73;9.35;;;12.80;88.50;;;;;;4814016;29;20496;-73
2021/09/05 06:13:23;;;;;;;19.58;10.13;;;12.80;88.50;;;;;;4838010;29;20062;-73
2021/09/05 06:15:50;;;;;;;24.08;9.60;;;12.90;88.50;;;;;;4823398;29;20629;-75
2021/09/05 06:18:18;;;;;;;18.00;8.90;;;12.90;88.50;;;;;;4838849;29;20053;-73
2021/09/05 06:20:46;;;;;;;22.75;10.05;;;13.10;88.40;;;;;;4822124;29;20054;-73
2021/09/05 06:23:13;;;;;;;15.73;9.75;;;13.20;88.30;;;;;;4788786;30;20055;-75
2021/09/05 06:25:41;;;;;;;13.13;9.02;;;13.30;88.20;;;;;;4801973;29;20482;-73
2021/09/05 06:28:09;;;;;;;14.52;8.93;;;13.30;88.10;;;;;;4806498;29;20055;-73
2021/09/05 06:30:36;;;;;;;17.38;9.02;;;13.30;88.00;;;;;;4806640;29;20505;-74
2021/09/05 06:33:04;;;;;;;15.90;8.85;;;13.30;87.90;;;;;;4806761;29;20054;-73
2021/09/05 06:35:31;;;;;;;19.15;9.35;;;13.40;87.80;;;;;;4807489;29;20518;-73
2021/09/05 06:37:59;;;;;;;19.08;8.57;;;13.50;87.80;;;;;;4806677;29;20057;-73
2021/09/05 06:40:26;;;;;;;18.38;8.55;;;13.50;87.80;;;;;;4806437;29;20055;-74
2021/09/05 06:42:54;;;;;;;20.27;8.63;;;13.60;87.70;;;;;;4816659;29;20504;-73
2021/09/05 06:45:21;;;;;;;17.88;8.40;;;13.70;87.50;;;;;;4824268;29;20051;-73
2021/09/05 06:47:49;;;;;;;16.05;8.75;;;13.80;87.40;;;;;;4838255;29;20070;-73
2021/09/05 06:50:17;;;;;;;13.68;7.80;;;13.80;87.30;;;;;;4821160;29;20092;-74
2021/09/05 06:52:44;;;;;;;15.85;7.65;;;13.80;87.20;;;;;;4824367;29;20481;-74
2021/09/05 06:55:12;;;;;;;12.18;7.07;;;13.90;87.10;;;;;;4815009;29;20055;-74
2021/09/05 06:57:39;;;;;;;17.92;8.70;;;14.00;87.00;;;;;;4806212;29;20043;-74
2021/09/05 07:00:07;;;;;;;14.00;7.30;;;14.00;86.80;;;;;;4806248;29;20073;-74
2021/09/05 07:02:36;;;;;;;11.30;7.22;;;14.10;86.70;;;;;;4806160;29;20524;-74
2021/09/05 07:05:05;;;;;;;14.27;7.35;;;14.30;86.50;;;;;;4820271;29;20046;-74
2021/09/05 07:07:48;;;;;;;19.17;7.05;;;14.30;86.40;;;;;;4806260;29;20051;-73
2021/09/05 07:10:15;;;;;;;19.25;7.85;;;14.40;86.20;;;;;;4814860;29;20061;-74
2021/09/05 07:12:43;;;;;;;11.05;6.70;;;14.40;86.00;;;;;;4824049;29;20535;-74
2021/09/05 07:15:11;;;;;;;13.88;6.78;;;14.40;85.80;;;;;;4824023;29;20054;-74
2021/09/05 07:17:39;;;;;;;17.05;6.43;;;14.40;85.80;;;;;;4824013;29;20066;-74
2021/09/05 07:20:07;;;;;;;11.63;7.00;;;14.40;85.80;;;;;;4822687;29;20519;-74
2021/09/05 07:22:35;;;;;;;15.45;7.47;;;14.50;85.70;;;;;;4811883;29;20054;-74
2021/09/05 07:25:09;;;;;;;18.13;7.80;;;14.50;85.60;;;;;;4805675;29;20065;-75
2021/09/05 07:27:37;;;;;;;13.10;6.85;;;14.60;85.50;;;;;;4806001;29;20409;-74
2021/09/05 07:30:06;;;;;;;14.02;6.97;;;14.70;85.30;;;;;;4805682;29;20054;-74
2021/09/05 07:32:35;;;;;;;14.57;6.65;;;14.80;85.20;;;;;;4818510;29;20065;-73
2021/09/05 07:35:03;;;;;;;14.90;6.75;;;14.90;85.00;;;;;;4824090;29;20440;-73
2021/09/05 07:37:30;;;;;;;15.02;6.75;;;15.00;84.80;;;;;;4823382;29;20046;-74
2021/09/05 07:39:58;;;;;;;17.23;7.03;;;15.10;84.60;;;;;;4819636;29;20489;-75
2021/09/05 07:42:26;;;;;;;14.45;6.32;;;15.20;84.50;;;;;;4803504;29;20047;-75
2021/09/05 07:44:54;;;;;;;12.02;6.25;;;15.20;84.30;;;;;;4805512;29;20065;-75
2021/09/05 07:47:21;;;;;;;16.30;7.00;;;15.30;84.20;;;;;;4805071;29;20051;-74
2021/09/05 07:49:49;;;;;;;16.77;6.78;;;15.30;84.10;;;;;;4799463;29;20390;-77
2021/09/05 07:52:16;;;;;;;11.05;6.00;;;15.40;84.00;;;;;;4805478;29;20059;-76
2021/09/05 07:54:44;;;;;;;13.88;6.15;;;15.30;83.90;;;;;;4807017;29;20054;-75
2021/09/05 07:57:12;;;;;;;14.98;6.10;;;15.30;83.80;;;;;;4805451;29;20047;-75
2021/09/05 07:59:39;;;;;;;19.92;6.78;;;15.40;83.70;;;;;;4805406;29;20046;-75
2021/09/05 08:02:07;;;;;;;19.20;5.80;;;15.40;83.60;;;;;;4817318;29;20050;-75
2021/09/05 08:04:35;;;;;;;12.25;5.70;;;15.50;83.50;;;;;;4821689;29;20401;-75
2021/09/05 08:07:03;;;;;;;15.77;6.35;;;15.60;83.30;;;;;;4819615;29;20394;-75
2021/09/05 08:09:30;;;;;;;16.23;5.93;;;15.70;83.20;;;;;;4807503;29;20050;-75
2021/09/05 08:11:58;;;;;;;13.00;6.00;;;15.80;83.00;;;;;;4821752;29;20485;-75
2021/09/05 08:14:26;;;;;;;14.20;6.57;;;15.80;82.70;;;;;;4818874;29;20418;-75
2021/09/05 08:16:54;;;;;;;10.80;5.30;;;15.90;82.40;;;;;;4805678;29;20428;-75
2021/09/05 08:19:21;;;;;;;14.77;5.68;;;15.90;82.30;;;;;;4805167;29;20050;-74
2021/09/05 08:21:49;;;;;;;14.80;5.80;;;16.00;82.20;;;;;;4804245;29;20071;-75
2021/09/05 08:24:16;;;;;;;18.88;5.95;;;16.10;81.90;;;;;;4807967;29;20046;-75
2021/09/05 08:26:44;;;;;;;12.98;5.53;;;16.20;81.80;;;;;;4837177;29;20061;-74
2021/09/05 08:29:12;;;;;;;15.40;6.30;;;16.20;81.70;;;;;;4822659;29;20405;-74
2021/09/05 08:31:39;;;;;;;14.45;5.78;;;16.30;81.50;;;;;;4821402;29;20050;-74
2021/09/05 08:34:07;;;;;;;13.20;6.30;;;16.30;81.40;;;;;;4813951;29;20069;-73
2021/09/05 08:36:35;;;;;;;15.40;5.90;;;16.30;81.20;;;;;;4804808;29;20047;-73
2021/09/05 08:39:02;;;;;;;13.98;5.68;;;16.30;81.10;;;;;;4805233;29;20046;-75
2021/09/05 08:41:31;;;;;;;14.40;5.93;;;16.40;80.90;;;;;;4819985;29;20055;-76
2021/09/05 08:43:59;;;;;;;13.40;5.90;;;16.50;80.70;;;;;;4835905;29;20068;-74
2021/09/05 08:46:27;;;;;;;15.32;5.50;;;16.60;80.60;;;;;;4811729;29;20051;-74
2021/09/05 08:48:55;;;;;;;16.77;6.10;;;16.80;80.20;;;;;;4809984;29;20055;-75
2021/09/05 08:51:23;;;;;;;17.35;6.05;;;16.80;79.60;;;;;;4816944;29;20058;-74
2021/09/05 08:53:51;;;;;;;13.63;6.35;;;16.90;79.30;;;;;;4810721;29;20410;-74
2021/09/05 08:56:19;;;;;;;16.48;6.35;;;16.90;79.10;;;;;;4808473;29;20493;-74
2021/09/05 08:58:46;;;;;;;17.23;6.20;;;17.00;78.80;;;;;;4819322;29;20044;-74
2021/09/05 09:01:21;;;;;;;16.83;6.20;;;17.10;78.60;;;;;;4803892;29;20058;-74
2021/09/05 09:03:49;;;;;;;15.75;5.70;;;17.20;78.20;;;;;;4803301;29;20054;-73
2021/09/05 09:06:19;;;;;;;11.23;6.05;;;17.30;78.00;;;;;;4807656;29;20059;-73
2021/09/05 09:09:00;;;;;;;12.38;6.03;;;17.40;77.50;;;;;;4821923;29;20051;-74
2021/09/05 09:11:47;;;;;;;14.82;6.53;;;17.50;76.90;;;;;;4807976;29;20066;-74
2021/09/05 09:14:16;;;;;;;15.48;6.10;;;17.70;76.40;;;;;;4808048;29;20482;-74
2021/09/05 09:16:44;;;;;;;11.93;6.10;;;17.70;76.20;;;;;;4808827;29;20067;-72
2021/09/05 09:19:28;;;;;;;13.30;5.90;;;17.80;75.60;;;;;;4809668;29;20436;-73
2021/09/05 09:21:56;;;;;;;10.85;6.03;;;17.80;75.20;;;;;;4806914;29;20055;-73
2021/09/05 09:24:24;;;;;;;14.77;6.40;;;18.00;74.90;;;;;;4805782;29;20055;-73
2021/09/05 09:27:05;;;;;;;11.70;5.82;;;18.10;74.40;;;;;;4806552;29;20051;-73
2021/09/05 09:29:35;;;;;;;12.75;6.10;;;18.20;74.00;;;;;;4807386;29;20063;-73
2021/09/05 09:32:17;;;;;;;10.50;6.18;;;18.30;74.00;;;;;;4807457;29;20063;-73
2021/09/05 09:34:47;;;;;;;14.60;6.47;;;18.50;73.90;;;;;;4807597;29;20062;-73
2021/09/05 09:37:17;;;;;;;14.73;5.47;;;18.60;73.30;;;;;;4807856;29;20050;-73
2021/09/05 09:39:54;;;;;;;12.10;5.90;;;18.80;72.50;;;;;;4807738;29;20658;-74
2021/09/05 09:42:35;;;;;;;11.32;5.32;;;18.90;71.90;;;;;;4806641;29;20065;-74
2021/09/05 09:45:14;;;;;;;11.00;6.00;;;18.90;71.20;;;;;;4807695;29;20509;-74
2021/09/05 09:47:49;;;;;;;14.30;6.40;;;19.00;70.50;;;;;;4825672;29;20046;-74
2021/09/05 09:50:22;;;;;;;11.48;5.93;;;19.10;70.30;;;;;;4823997;29;20050;-74
2021/09/05 09:52:49;;;;;;;15.07;6.13;;;19.10;70.50;;;;;;4818874;29;20046;-74
2021/09/05 09:55:17;;;;;;;11.38;5.40;;;19.20;70.40;;;;;;4824881;29;20058;-74
2021/09/05 09:57:44;;;;;;;8.82;5.53;;;19.30;68.70;;;;;;4824590;29;20496;-74
2021/09/05 10:00:14;;;;;;;13.07;6.25;;;19.40;68.40;;;;;;4823689;29;20066;-75
2021/09/05 10:02:44;;;;;;;11.73;5.57;;;19.50;66.80;;;;;;4825423;29;20046;-73
2021/09/05 10:05:13;;;;;;;14.38;6.00;;;19.60;66.20;;;;;;4825452;29;20046;-73
2021/09/05 10:07:42;;;;;;;13.35;5.78;;;19.70;66.40;;;;;;4839531;29;20065;-73
2021/09/05 10:10:13;;;;;;;12.35;5.82;;;19.80;65.70;;;;;;4825483;29;20070;-72
2021/09/05 10:12:41;;;;;;;10.95;5.80;;;19.90;65.20;;;;;;4839745;29;20601;-73
2021/09/05 10:15:10;;;;;;;15.43;5.88;;;19.90;64.90;;;;;;4824832;29;20521;-73
2021/09/05 10:17:38;;;;;;;10.10;5.60;;;20.00;64.80;;;;;;4789314;30;20047;-73
2021/09/05 10:20:07;;;;;;;10.02;5.35;;;20.20;64.10;;;;;;4789220;29;20055;-72
2021/09/05 10:22:35;;;;;;;16.38;5.72;;;20.30;63.90;;;;;;4817046;29;20054;-72
2021/09/05 10:25:04;;;;;;;10.13;5.78;;;20.30;63.60;;;;;;4831777;29;20058;-73
2021/09/05 10:27:38;;;;;;;14.25;5.63;;;20.50;63.40;;;;;;4825389;29;20046;-72
2021/09/05 10:30:10;;;;;;;13.35;6.45;;;20.70;62.80;;;;;;4823917;29;20382;-72
2021/09/05 10:32:52;;;;;;;12.07;6.85;;;20.80;62.00;;;;;;4806985;29;20047;-72
2021/09/05 10:35:26;;;;;;;14.20;6.43;;;20.90;61.60;;;;;;4806682;29;20055;-72
2021/09/05 10:38:09;;;;;;;12.88;6.22;;;21.00;61.10;;;;;;4806914;29;20050;-72
2021/09/05 10:40:40;;;;;;;7.55;5.68;;;21.20;60.60;;;;;;4806943;29;20042;-72
2021/09/05 10:43:08;;;;;;;11.63;6.35;;;21.30;60.40;;;;;;4820789;29;20055;-72
2021/09/05 10:45:38;;;;;;;9.73;6.18;;;21.50;59.70;;;;;;4806878;29;20051;-72
2021/09/05 10:48:37;;;;;;;11.63;6.30;;;21.70;58.80;;;;;;4824603;29;20067;-72
2021/09/05 10:51:12;;;;;;;13.52;6.43;;;21.80;58.00;;;;;;4806253;29;20409;-72
2021/09/05 10:53:57;;;;;;;10.77;6.88;;;21.80;58.20;;;;;;4805032;29;20405;-72
2021/09/05 10:56:34;;;;;;;10.55;6.50;;;21.90;58.30;;;;;;4803138;29;20516;-71
2021/09/05 10:59:08;;;;;;;11.07;6.00;;;21.90;58.20;;;;;;4804012;29;20055;-72
2021/09/05 11:01:38;;;;;;;11.32;6.53;;;22.10;57.60;;;;;;4804797;29;20059;-72
2021/09/05 11:04:12;;;;;;;13.85;6.93;;;22.20;57.10;;;;;;4802925;29;20055;-72
2021/09/05 11:06:56;;;;;;;11.82;6.97;;;22.30;56.00;;;;;;4804060;29;20054;-72
2021/09/05 11:09:25;;;;;;;13.80;7.07;;;22.40;55.70;;;;;;4803032;29;20046;-73
2021/09/05 11:12:22;;;;;;;11.30;6.70;;;22.40;55.50;;;;;;4803850;29;20417;-73
2021/09/05 11:14:51;;;;;;;11.57;7.03;;;22.40;55.60;;;;;;4803973;29;20054;-71
2021/09/05 11:17:20;;;;;;;14.32;7.38;;;22.50;55.60;;;;;;4804882;29;20054;-72
2021/09/05 11:19:53;;;;;;;11.63;6.82;;;22.50;55.40;;;;;;4803803;29;20078;-75
2021/09/05 11:22:30;;;;;;;12.57;7.43;;;22.60;55.60;;;;;;4804994;29;20051;-74
2021/09/05 11:25:08;;;;;;;12.43;6.95;;;22.70;55.70;;;;;;4805199;29;20081;-74
2021/09/05 11:27:48;;;;;;;19.13;7.97;;;22.80;55.20;;;;;;4805002;29;20058;-73
2021/09/05 11:30:17;;;;;;;16.38;7.88;;;22.90;54.90;;;;;;4818641;29;20066;-73
2021/09/05 11:32:47;;;;;;;14.48;7.53;;;22.90;54.80;;;;;;4803035;29;20417;-73
2021/09/05 11:35:15;;;;;;;12.82;7.40;;;23.00;54.60;;;;;;4804677;29;20062;-72
2021/09/05 11:37:45;;;;;;;11.38;7.55;;;23.10;54.90;;;;;;4804335;29;20067;-74
2021/09/05 11:40:20;;;;;;;15.27;8.13;;;23.30;54.30;;;;;;4804217;29;20054;-74
2021/09/05 11:42:49;;;;;;;;;;;23.30;54.10;;;;;;4805251;29;20043;-74
2021/09/05 11:45:23;;;;;;;12.48;8.15;;;23.40;53.70;;;;;;4802430;29;19929;-74
2021/09/05 11:48:05;;;;;;;15.80;9.25;;;23.60;54.40;;;;;;4804230;29;20062;-74
2021/09/05 11:50:34;;;;;;;12.48;8.23;;;23.70;53.00;;;;;;4804157;29;20054;-74
2021/09/05 11:53:04;;;;;;;12.27;8.52;;;23.80;52.70;;;;;;4804275;29;20047;-74
2021/09/05 11:55:35;;;;;;;16.42;8.52;;;23.80;52.80;;;;;;4801560;29;20498;-74
2021/09/05 11:58:08;;;;;;;12.35;8.05;;;23.90;52.70;;;;;;4803886;29;20042;-74
2021/09/05 12:00:40;;;;;;;19.98;8.65;;;24.00;52.50;;;;;;4802614;29;20399;-74
2021/09/05 12:03:13;;;;;;;14.13;7.95;;;24.20;52.10;;;;;;4802466;29;20051;-74
2021/09/05 12:05:42;;;;;;;13.13;8.50;;;24.30;52.20;;;;;;4802948;29;20063;-74
2021/09/05 12:08:16;;;;;;;15.75;8.48;;;24.60;51.60;;;;;;4803785;29;20497;-74
2021/09/05 12:10:46;;;;;;;12.75;8.98;;;24.80;50.70;;;;;;4804010;29;20063;-74
2021/09/05 12:13:14;;;;;;;14.52;9.40;;;25.00;50.30;;;;;;4802827;29;20050;-74
2021/09/05 12:15:45;;;;;;;16.08;9.88;;;25.10;49.80;;;;;;4804642;29;20400;-74
2021/09/05 12:18:27;;;;;;;14.77;9.13;;;25.20;49.30;;;;;;4801562;29;20054;-74
2021/09/05 12:21:00;;;;;;;13.77;8.93;;;25.30;48.60;;;;;;4797952;29;20062;-74
2021/09/05 12:23:34;;;;;;;11.43;8.70;;;25.50;48.80;;;;;;4826407;29;20039;-74
2021/09/05 12:26:16;;;;;;;14.93;9.00;;;25.80;48.60;;;;;;4803287;29;20051;-73
2021/09/05 12:28:56;;;;;;;19.02;9.40;;;26.10;46.80;;;;;;4816669;29;20062;-73
2021/09/05 12:31:46;;;;;;;19.17;9.13;;;25.90;47.00;;;;;;4802597;29;20142;-73
2021/09/05 12:34:36;;;;;;;20.38;9.35;;;25.70;47.40;;;;;;4801155;29;20050;-74
2021/09/05 12:37:17;;;;;;;19.58;9.30;;;25.80;47.50;;;;;;4803766;29;20047;-73
2021/09/05 12:39:47;;;;;;;13.98;8.98;;;25.80;47.90;;;;;;4806317;29;20042;-73
2021/09/05 12:42:17;;;;;;;14.00;8.68;;;25.80;48.00;;;;;;4802422;29;20062;-73
2021/09/05 12:44:48;;;;;;;14.52;8.23;;;26.00;47.50;;;;;;4805575;29;20058;-73
2021/09/05 12:47:30;;;;;;;13.57;8.93;;;26.50;47.10;;;;;;4801973;29;20051;-73
2021/09/05 12:49:59;;;;;;;21.02;8.60;;;27.00;46.00;;;;;;4803414;29;20062;-73
2021/09/05 12:52:29;;;;;;;14.38;8.27;;;27.30;45.20;;;;;;4814579;29;20050;-74
2021/09/05 12:55:01;;;;;;;28.50;10.85;;;27.40;45.00;;;;;;4802993;29;20501;-74
2021/09/05 12:57:30;;;;;;;28.80;10.02;;;27.80;44.90;;;;;;4804668;29;20076;-73
2021/09/05 12:59:58;;;;;;;17.75;7.60;;;28.30;44.20;;;;;;4802488;29;20054;-73
2021/09/05 13:02:29;;;;;;;20.13;9.02;;;28.90;43.50;;;;;;4803221;29;20055;-72
2021/09/05 13:04:57;;;;;;;18.30;8.85;;;29.30;42.50;;;;;;4802248;29;20405;-73
2021/09/05 13:07:26;;;;;;;14.02;8.48;;;29.50;41.90;;;;;;4804713;29;20428;-73
2021/09/05 13:09:58;;;;;;;11.10;7.80;;;29.70;41.30;;;;;;4803122;29;20058;-75